Terminal Aerodrome Forecast
Issued by NWS North Platte, NE

Home | Current Version | Previous Version | Text Only | Print | Product List | Glossary On
Versions: 1 2 3 4 5 6 7 8 9 10 11 12 13 14 15 16 17 18 19 20 21 22 23 24 25 26 27
000
FTUS43 KLBF 251800 AAA
TAFLBF
TAF AMD
KLBF 251825Z 2518/2618 10007G15KT P6SM SCT025 BKN040
     FM260100 10007KT P6SM BKN025
     FM260300 VRB05KT P6SM OVC015
     FM260600 VRB05KT 3SM BR OVC005
      TEMPO 2610/2613 1SM BR OVC003
     FM261500 08010KT P6SM OVC008=

USA.gov is the U.S. government's official web portal to all federal, state and local government web resources and services.